createdAt,value
2023-02-15T00:00:46.911Z,84.70
2023-02-15T00:03:18.937Z,84.83
2023-02-15T00:05:49.315Z,84.81
2023-02-15T00:08:21.000Z,85.01
2023-02-15T00:10:51.561Z,85.13
2023-02-15T00:13:22.156Z,85.14
2023-02-15T00:15:55.149Z,85.15
2023-02-15T00:18:28.805Z,85.30
2023-02-15T00:21:01.423Z,85.17
2023-02-15T00:23:32.008Z,85.17
2023-02-15T00:26:08.121Z,85.25
2023-02-15T00:28:41.001Z,85.45
2023-02-15T00:31:13.701Z,85.48
2023-02-15T00:33:45.004Z,85.14
2023-02-15T00:36:17.030Z,85.25
2023-02-15T00:38:48.002Z,85.21
2023-02-15T00:41:18.442Z,85.22
2023-02-15T00:43:48.984Z,85.51
2023-02-15T00:46:19.569Z,85.59
2023-02-15T00:48:50.769Z,85.56
2023-02-15T00:51:24.718Z,85.69
2023-02-15T00:53:55.483Z,85.82
2023-02-15T00:56:26.088Z,85.54
2023-02-15T00:58:56.684Z,85.63
2023-02-15T01:01:28.562Z,85.36
2023-02-15T01:03:59.224Z,85.58
2023-02-15T01:06:29.729Z,85.85
2023-02-15T01:09:00.374Z,85.89
2023-02-15T01:11:32.515Z,85.92
2023-02-15T01:14:04.869Z,86.28
2023-02-15T01:16:35.872Z,86.35
2023-02-15T01:19:07.110Z,86.46
2023-02-15T01:21:37.685Z,86.31
2023-02-15T01:24:15.346Z,86.28
2023-02-15T01:26:46.007Z,86.50
2023-02-15T01:29:17.068Z,86.36
2023-02-15T01:31:48.212Z,86.15
2023-02-15T01:34:18.930Z,86.26
2023-02-15T01:36:49.495Z,86.50
2023-02-15T01:39:20.006Z,86.42
2023-02-15T01:41:52.320Z,86.67
2023-02-15T01:44:43.642Z,86.51
2023-02-15T01:47:19.699Z,86.55
2023-02-15T01:49:51.962Z,86.72
2023-02-15T01:52:22.592Z,86.29
2023-02-15T01:54:53.601Z,86.50
2023-02-15T01:57:27.337Z,86.57
2023-02-15T02:00:00.751Z,86.44
2023-02-15T02:02:31.480Z,86.64
2023-02-15T02:05:27.844Z,86.85
2023-02-15T02:08:01.016Z,86.84
2023-02-15T02:10:31.794Z,86.99
2023-02-15T02:13:05.414Z,87.04
2023-02-15T02:15:47.673Z,87.23
2023-02-15T02:18:56.480Z,87.30
2023-02-15T02:21:49.041Z,87.41
2023-02-15T02:24:42.644Z,87.25
2023-02-15T02:27:38.640Z,87.37
2023-02-15T02:30:35.413Z,87.33
2023-02-15T02:33:32.136Z,87.30
2023-02-15T02:36:39.521Z,87.30
2023-02-15T02:39:46.263Z,87.37
2023-02-15T02:42:25.814Z,87.24
2023-02-15T02:45:04.931Z,87.35
2023-02-15T02:47:47.202Z,87.40
2023-02-15T02:50:26.411Z,87.25
2023-02-15T02:52:58.680Z,87.32
2023-02-15T02:55:44.233Z,87.37
2023-02-15T02:58:35.801Z,87.42
2023-02-15T03:01:18.269Z,87.45
2023-02-15T03:03:51.762Z,87.49
2023-02-15T03:06:25.284Z,87.43
2023-02-15T03:09:01.626Z,87.43
2023-02-15T03:11:33.864Z,87.38
2023-02-15T03:14:04.638Z,87.30
2023-02-15T03:16:36.103Z,87.38
2023-02-15T03:19:23.346Z,87.40
2023-02-15T03:22:01.070Z,87.56
2023-02-15T03:24:37.226Z,87.55
2023-02-15T03:27:11.040Z,87.71
2023-02-15T03:29:41.716Z,87.69
2023-02-15T03:32:14.192Z,87.65
2023-02-15T03:34:45.757Z,87.38
2023-02-15T03:37:19.410Z,87.42
2023-02-15T03:40:06.074Z,87.27
2023-02-15T03:42:39.720Z,87.27
2023-02-15T03:45:16.304Z,87.30
2023-02-15T03:47:49.680Z,87.15
2023-02-15T03:50:42.650Z,87.13
2023-02-15T03:53:17.177Z,87.20
2023-02-15T03:55:53.050Z,87.24
2023-02-15T03:58:41.429Z,87.43
2023-02-15T04:01:32.809Z,87.26
2023-02-15T04:04:09.244Z,87.38
2023-02-15T04:06:41.033Z,87.42
2023-02-15T04:09:29.561Z,87.51
2023-02-15T04:12:05.729Z,87.55
2023-02-15T04:14:54.142Z,87.65
2023-02-15T04:17:24.771Z,87.61
2023-02-15T04:20:13.240Z,87.69
2023-02-15T04:23:02.089Z,87.58
2023-02-15T04:25:32.666Z,87.79
2023-02-15T04:28:03.192Z,87.86
2023-02-15T04:30:33.755Z,87.94
2023-02-15T04:33:04.416Z,88.06
2023-02-15T04:35:36.420Z,87.99
2023-02-15T04:38:06.907Z,87.89
2023-02-15T04:40:37.357Z,87.93
2023-02-15T04:43:07.860Z,87.83
2023-02-15T04:45:38.413Z,87.75
2023-02-15T04:48:08.940Z,87.89
2023-02-15T04:50:39.512Z,87.85
2023-02-15T04:53:10.077Z,87.81
2023-02-15T04:55:40.495Z,87.89
2023-02-15T04:58:11.072Z,87.96
2023-02-15T05:00:41.705Z,87.86
2023-02-15T05:03:12.152Z,87.93
2023-02-15T05:05:42.755Z,87.96
2023-02-15T05:08:13.152Z,88.13
2023-02-15T05:10:43.729Z,88.09
2023-02-15T05:13:14.073Z,88.25
2023-02-15T05:15:50.096Z,88.12
2023-02-15T05:18:22.292Z,88.26
2023-02-15T05:20:52.856Z,88.38
2023-02-15T05:23:23.424Z,88.42
2023-02-15T05:26:12.252Z,88.39
2023-02-15T05:28:43.668Z,88.22
2023-02-15T05:31:20.255Z,88.38
2023-02-15T05:33:50.855Z,88.46
2023-02-15T05:36:21.514Z,88.48
2023-02-15T05:38:52.032Z,88.41
2023-02-15T05:41:23.065Z,88.44
2023-02-15T05:43:53.378Z,88.43
2023-02-15T05:46:23.798Z,88.44
2023-02-15T05:48:54.367Z,88.58
2023-02-15T05:51:24.979Z,88.59
2023-02-15T05:53:55.498Z,88.60
2023-02-15T05:56:26.142Z,88.72
2023-02-15T05:58:56.500Z,88.58
2023-02-15T06:01:27.049Z,88.72
2023-02-15T06:03:58.654Z,88.75
2023-02-15T06:06:29.317Z,88.76
2023-02-15T06:08:59.730Z,88.76
2023-02-15T06:11:30.261Z,88.63
2023-02-15T06:14:00.784Z,88.70
2023-02-15T06:16:31.507Z,88.77
2023-02-15T06:19:03.279Z,88.91
2023-02-15T06:21:33.721Z,88.92
2023-02-15T06:24:04.412Z,88.96
2023-02-15T06:26:36.608Z,88.87
2023-02-15T06:29:07.180Z,88.95
2023-02-15T06:31:37.850Z,89.20
2023-02-15T06:34:08.559Z,89.44
2023-02-15T06:36:39.274Z,89.66
2023-02-15T06:39:10.131Z,89.58
2023-02-15T06:41:46.229Z,89.70
2023-02-15T06:44:19.528Z,89.63
2023-02-15T06:46:50.156Z,89.58
2023-02-15T06:49:20.770Z,89.50
2023-02-15T06:51:51.448Z,89.48
2023-02-15T06:54:22.466Z,89.41
2023-02-15T06:56:53.616Z,89.46
2023-02-15T06:59:24.186Z,89.46
2023-02-15T07:01:54.680Z,89.38
2023-02-15T07:04:25.571Z,89.15
2023-02-15T07:06:56.217Z,88.80
2023-02-15T07:09:26.894Z,88.61
2023-02-15T07:12:16.894Z,88.62
2023-02-15T07:14:48.456Z,88.71
2023-02-15T07:17:36.240Z,88.60
2023-02-15T07:19:52.469Z,88.51
2023-02-15T07:22:22.856Z,88.32
2023-02-15T07:24:55.290Z,88.07
2023-02-15T07:27:26.461Z,88.26
2023-02-15T07:29:57.547Z,88.54
2023-02-15T07:32:32.633Z,88.96
2023-02-15T07:35:04.192Z,89.44
2023-02-15T07:37:35.814Z,89.54
2023-02-15T07:40:08.836Z,89.59
2023-02-15T07:42:41.268Z,89.50
2023-02-15T07:45:11.797Z,89.13
2023-02-15T07:47:42.314Z,88.98
2023-02-15T07:50:12.937Z,88.42
2023-02-15T07:52:44.202Z,88.16
2023-02-15T07:55:16.956Z,87.76
2023-02-15T07:57:48.520Z,87.46
2023-02-15T08:00:23.171Z,87.22
2023-02-15T08:03:14.703Z,86.69
2023-02-15T08:05:47.122Z,86.81
2023-02-15T08:08:33.169Z,86.88
2023-02-15T08:11:29.469Z,86.80
2023-02-15T08:14:12.221Z,86.88
2023-02-15T08:16:54.160Z,86.68
2023-02-15T08:19:27.720Z,87.16
2023-02-15T08:22:00.811Z,87.82
2023-02-15T08:24:40.526Z,87.50
2023-02-15T08:27:12.616Z,87.17
2023-02-15T08:29:43.247Z,87.45
2023-02-15T08:32:14.969Z,87.09
2023-02-15T08:34:45.637Z,87.26
2023-02-15T08:37:16.500Z,87.69
2023-02-15T08:39:46.926Z,87.48
2023-02-15T08:42:19.071Z,87.75
2023-02-15T08:44:52.633Z,87.58
2023-02-15T08:47:23.399Z,87.70
2023-02-15T08:49:54.205Z,88.10
2023-02-15T08:52:24.627Z,88.57
2023-02-15T08:54:56.026Z,88.42
2023-02-15T08:57:26.794Z,87.61
2023-02-15T08:59:57.197Z,87.52
2023-02-15T09:04:53.769Z,86.38
2023-02-15T09:07:24.234Z,86.01
2023-02-15T09:09:56.965Z,85.60
2023-02-15T09:12:27.388Z,86.08
2023-02-15T09:14:58.957Z,87.05
2023-02-15T09:17:29.522Z,87.53
2023-02-15T09:20:01.551Z,87.77
2023-02-15T09:22:32.257Z,87.61
2023-02-15T09:25:03.962Z,87.26
2023-02-15T09:27:37.320Z,87.41
2023-02-15T09:30:09.340Z,86.92
2023-02-15T09:32:40.167Z,86.12
2023-02-15T09:35:11.033Z,86.53
2023-02-15T09:37:44.345Z,86.08
2023-02-15T09:40:18.436Z,85.89
2023-02-15T09:46:33.143Z,87.26
2023-02-15T09:49:06.713Z,86.96
2023-02-15T09:51:41.393Z,85.79
2023-02-15T09:54:26.936Z,85.83
2023-02-15T09:57:09.336Z,85.55
2023-02-15T09:59:55.066Z,85.13
2023-02-15T10:02:37.795Z,85.50
2023-02-15T10:05:24.381Z,85.40
2023-02-15T10:08:02.659Z,85.03
2023-02-15T10:10:41.031Z,84.86
2023-02-15T10:13:20.298Z,84.49
2023-02-15T10:15:56.827Z,83.61
2023-02-15T10:18:33.750Z,84.07
2023-02-15T10:21:34.023Z,84.46
2023-02-15T10:24:08.252Z,84.24
2023-02-15T10:26:46.451Z,84.24
2023-02-15T10:29:29.863Z,84.19
2023-02-15T10:32:09.288Z,84.93
2023-02-15T10:34:44.633Z,85.19
2023-02-15T10:37:34.603Z,84.69
2023-02-15T10:40:15.099Z,83.70
2023-02-15T10:43:07.293Z,83.17
2023-02-15T10:46:05.073Z,82.40
2023-02-15T10:48:47.276Z,82.17
2023-02-15T10:51:27.969Z,81.69
2023-02-15T10:54:30.869Z,81.42
2023-02-15T10:57:07.149Z,81.75
2023-02-15T10:59:57.077Z,82.23
2023-02-15T11:02:48.991Z,81.73
2023-02-15T11:05:37.642Z,81.44
2023-02-15T11:08:11.284Z,80.32
2023-02-15T11:10:56.661Z,80.25
2023-02-15T11:13:30.326Z,80.51
2023-02-15T11:16:07.261Z,79.94
2023-02-15T11:18:43.529Z,79.85
2023-02-15T11:21:23.175Z,79.87
2023-02-15T11:23:55.297Z,80.08
2023-02-15T11:26:32.720Z,79.49
2023-02-15T11:29:21.100Z,79.34
2023-02-15T11:32:00.810Z,78.24
2023-02-15T11:34:39.940Z,78.01
2023-02-15T11:37:16.268Z,78.00
2023-02-15T11:39:48.881Z,77.62
2023-02-15T11:42:24.053Z,77.76
2023-02-15T11:45:26.155Z,77.45
2023-02-15T11:47:58.882Z,77.98
2023-02-15T11:50:32.908Z,77.41
2023-02-15T11:53:15.900Z,77.60
2023-02-15T11:55:53.068Z,76.78
2023-02-15T11:58:29.494Z,75.75
2023-02-15T12:01:21.354Z,75.46
2023-02-15T12:03:57.134Z,75.40
2023-02-15T12:06:46.006Z,75.73
2023-02-15T12:09:24.531Z,75.96
2023-02-15T12:11:59.211Z,76.26
2023-02-15T12:14:34.538Z,76.15
2023-02-15T12:17:05.141Z,76.21
2023-02-15T12:19:45.268Z,75.86
2023-02-15T12:22:37.632Z,75.68
2023-02-15T12:25:40.119Z,73.99
2023-02-15T12:28:41.175Z,73.00
2023-02-15T12:31:26.708Z,74.05
2023-02-15T12:34:01.653Z,74.37
2023-02-15T12:36:37.918Z,74.10
2023-02-15T12:39:17.802Z,73.94
2023-02-15T12:42:05.961Z,73.56
2023-02-15T12:44:42.115Z,72.54
2023-02-15T12:47:28.856Z,71.43
2023-02-15T12:50:22.230Z,71.15
2023-02-15T12:53:09.720Z,71.44
2023-02-15T12:55:33.175Z,71.66
2023-02-15T12:58:15.917Z,70.72
2023-02-15T13:00:48.653Z,70.46
2023-02-15T13:03:25.799Z,69.52
2023-02-15T13:06:01.744Z,69.45
2023-02-15T13:08:47.041Z,69.70
2023-02-15T13:11:16.100Z,69.34
2023-02-15T13:14:01.494Z,68.75
2023-02-15T13:16:44.225Z,65.21
2023-02-15T13:19:37.388Z,63.17
2023-02-15T13:22:12.727Z,65.69
2023-02-15T13:24:53.890Z,66.20
2023-02-15T13:27:27.503Z,66.30
2023-02-15T13:30:03.864Z,66.34
2023-02-15T13:32:41.679Z,66.41
2023-02-15T13:35:18.292Z,65.61
2023-02-15T13:38:00.803Z,65.15
2023-02-15T13:40:41.722Z,65.11
2023-02-15T13:43:36.449Z,65.48
2023-02-15T13:46:11.400Z,65.98
2023-02-15T13:48:58.393Z,65.17
2023-02-15T13:51:47.041Z,65.09
2023-02-15T13:54:48.402Z,65.71
2023-02-15T13:57:58.455Z,65.73
2023-02-15T14:00:36.529Z,65.25
2023-02-15T14:03:36.374Z,65.57
2023-02-15T14:06:32.768Z,66.00
2023-02-15T14:09:27.456Z,66.85
2023-02-15T14:12:19.821Z,67.45
2023-02-15T14:15:07.667Z,67.79
2023-02-15T14:17:58.564Z,67.87
2023-02-15T14:20:38.684Z,67.81
2023-02-15T14:23:22.960Z,67.58
2023-02-15T14:26:03.157Z,67.02
2023-02-15T14:28:57.020Z,67.09
2023-02-15T14:31:36.921Z,67.15
2023-02-15T14:34:12.997Z,67.70
2023-02-15T14:36:46.267Z,68.11
2023-02-15T14:39:43.919Z,67.82
2023-02-15T14:42:18.673Z,67.66
2023-02-15T14:45:02.626Z,69.14
2023-02-15T14:47:42.171Z,69.49
2023-02-15T14:50:38.456Z,69.09
2023-02-15T14:53:32.041Z,69.67
2023-02-15T14:56:18.470Z,69.82
2023-02-15T14:58:57.473Z,70.22
2023-02-15T15:01:38.263Z,70.31
2023-02-15T15:04:15.234Z,70.74
2023-02-15T15:06:49.407Z,70.74
2023-02-15T15:09:26.092Z,70.70
2023-02-15T15:12:16.608Z,71.26
2023-02-15T15:14:47.209Z,70.44
2023-02-15T15:17:40.602Z,70.80
2023-02-15T15:20:20.243Z,71.09
2023-02-15T15:22:53.886Z,71.11
2023-02-15T15:25:45.929Z,71.51
2023-02-15T15:28:38.870Z,71.05
2023-02-15T15:31:31.892Z,71.11
2023-02-15T15:34:05.466Z,71.46
2023-02-15T15:36:51.043Z,71.07
2023-02-15T15:39:58.189Z,71.94
2023-02-15T15:42:50.558Z,71.38
2023-02-15T15:45:27.304Z,71.44
2023-02-15T15:48:17.251Z,71.78
2023-02-15T15:50:53.249Z,72.45
2023-02-15T15:53:27.251Z,72.34
2023-02-15T15:56:03.718Z,72.24
2023-02-15T15:58:36.050Z,72.56
2023-02-15T16:01:19.541Z,73.04
2023-02-15T16:03:56.918Z,73.07
2023-02-15T16:06:36.235Z,72.81
2023-02-15T16:09:21.985Z,73.35
2023-02-15T16:12:07.090Z,73.79
2023-02-15T16:14:41.235Z,74.33
2023-02-15T16:17:18.350Z,74.48
2023-02-15T16:19:50.417Z,74.71
2023-02-15T16:22:27.605Z,75.78
2023-02-15T16:25:04.186Z,75.92
2023-02-15T16:27:46.444Z,76.67
2023-02-15T16:30:27.064Z,77.20
2023-02-15T16:33:06.797Z,77.77
2023-02-15T16:35:43.878Z,78.01
2023-02-15T16:38:17.568Z,78.45
2023-02-15T16:40:58.688Z,78.28
2023-02-15T16:43:34.253Z,78.44
2023-02-15T16:46:11.278Z,79.06
2023-02-15T16:48:44.788Z,78.61
2023-02-15T16:51:26.072Z,79.35
2023-02-15T16:54:00.536Z,79.56
2023-02-15T16:56:33.325Z,79.83
2023-02-15T16:59:04.514Z,79.91
2023-02-15T17:01:35.756Z,79.89
2023-02-15T17:04:24.876Z,79.79
2023-02-15T17:07:10.716Z,80.48
2023-02-15T17:09:57.023Z,80.34
2023-02-15T17:12:47.082Z,79.78
2023-02-15T17:15:31.840Z,79.31
2023-02-15T17:18:21.245Z,79.91
2023-02-15T17:20:58.499Z,79.32
2023-02-15T17:23:39.670Z,80.36
2023-02-15T17:26:33.422Z,80.15
2023-02-15T17:29:25.965Z,81.11
2023-02-15T17:32:03.192Z,81.73
2023-02-15T17:34:52.229Z,82.07
2023-02-15T17:37:32.612Z,82.29
2023-02-15T17:40:16.129Z,82.37
2023-02-15T17:42:47.610Z,81.62
2023-02-15T17:45:18.835Z,82.40
2023-02-15T17:47:51.323Z,82.58
2023-02-15T17:50:24.983Z,82.60
2023-02-15T17:52:59.738Z,82.06
2023-02-15T17:55:38.740Z,82.29
2023-02-15T17:58:19.583Z,82.25
2023-02-15T18:01:21.122Z,82.20
2023-02-15T18:04:11.673Z,81.96
2023-02-15T18:07:04.281Z,81.88
2023-02-15T18:09:55.936Z,81.80
2023-02-15T18:12:36.746Z,82.06
2023-02-15T18:15:14.343Z,82.25
2023-02-15T18:17:49.897Z,82.67
2023-02-15T18:20:24.834Z,82.88
2023-02-15T18:22:55.369Z,83.13
2023-02-15T18:25:26.366Z,83.25
2023-02-15T18:27:57.248Z,83.68
2023-02-15T18:30:28.394Z,83.95
2023-02-15T18:33:00.400Z,84.21
2023-02-15T18:35:34.185Z,84.43
2023-02-15T18:38:04.773Z,84.43
2023-02-15T18:40:36.662Z,84.46
2023-02-15T18:43:08.884Z,84.14
2023-02-15T18:45:41.147Z,84.55
2023-02-15T18:48:13.348Z,84.83
2023-02-15T18:50:43.903Z,84.79
2023-02-15T18:53:23.008Z,84.90
2023-02-15T18:55:54.950Z,84.90
2023-02-15T18:58:27.705Z,84.93
2023-02-15T19:00:59.982Z,85.23
2023-02-15T19:03:31.158Z,85.39
2023-02-15T19:06:03.933Z,85.40
2023-02-15T19:08:36.256Z,85.60
2023-02-15T19:11:15.723Z,85.60
2023-02-15T19:13:48.952Z,85.19
2023-02-15T19:16:36.377Z,85.43
2023-02-15T19:19:09.976Z,85.31
2023-02-15T19:22:03.821Z,85.30
2023-02-15T19:24:40.621Z,85.38
2023-02-15T19:27:33.659Z,85.55
2023-02-15T19:30:10.167Z,85.39
2023-02-15T19:32:43.884Z,85.54
2023-02-15T19:35:23.016Z,85.51
2023-02-15T19:37:56.486Z,85.73
2023-02-15T19:40:35.337Z,85.71
2023-02-15T19:43:08.966Z,85.77
2023-02-15T19:45:42.247Z,85.92
2023-02-15T19:48:18.563Z,85.72
2023-02-15T19:50:50.015Z,86.09
2023-02-15T19:53:29.713Z,86.12
2023-02-15T19:56:01.433Z,86.37
2023-02-15T19:58:33.582Z,86.41
2023-02-15T20:01:04.299Z,86.41
2023-02-15T20:03:35.169Z,86.63
2023-02-15T20:06:06.664Z,86.85
2023-02-15T20:08:37.280Z,86.88
2023-02-15T20:11:11.050Z,87.02
2023-02-15T20:13:41.701Z,87.25
2023-02-15T20:16:14.457Z,87.38
2023-02-15T20:18:46.557Z,87.40
2023-02-15T20:21:18.794Z,87.47
2023-02-15T20:23:49.324Z,87.53
2023-02-15T20:26:22.641Z,87.65
2023-02-15T20:28:54.121Z,87.59
2023-02-15T20:31:25.862Z,87.72
2023-02-15T20:33:58.716Z,87.79
2023-02-15T20:36:30.279Z,87.83
2023-02-15T20:39:05.225Z,87.87
2023-02-15T20:41:38.694Z,88.00
2023-02-15T20:44:31.740Z,88.08
2023-02-15T20:47:03.871Z,88.00
2023-02-15T20:49:35.484Z,87.89
2023-02-15T20:52:09.726Z,87.89
2023-02-15T20:54:41.253Z,87.93
2023-02-15T20:57:16.769Z,88.07
2023-02-15T20:59:48.739Z,87.65
2023-02-15T21:02:23.436Z,87.61
2023-02-15T21:04:55.833Z,87.66
2023-02-15T21:07:26.470Z,87.41
2023-02-15T21:09:56.938Z,87.55
2023-02-15T21:12:38.757Z,87.66
2023-02-15T21:15:31.796Z,87.97
2023-02-15T21:18:05.888Z,88.04
2023-02-15T21:20:37.142Z,88.31
2023-02-15T21:23:15.802Z,88.46
2023-02-15T21:25:48.514Z,88.21
2023-02-15T21:28:23.763Z,88.13
2023-02-15T21:30:58.425Z,88.20
2023-02-15T21:33:30.031Z,88.34
2023-02-15T21:36:00.797Z,88.40
2023-02-15T21:38:35.926Z,88.49
2023-02-15T21:41:28.208Z,88.46
2023-02-15T21:44:17.077Z,88.46
2023-02-15T21:47:05.463Z,88.51
2023-02-15T21:49:41.358Z,88.61
2023-02-15T21:52:15.984Z,88.64
2023-02-15T21:54:47.512Z,88.62
2023-02-15T21:57:22.154Z,88.66
2023-02-15T21:59:54.963Z,88.61
2023-02-15T22:02:31.525Z,88.65
2023-02-15T22:05:02.082Z,88.69
2023-02-15T22:07:32.584Z,88.73
2023-02-15T22:10:03.935Z,88.76
2023-02-15T22:12:37.906Z,88.92
2023-02-15T22:15:15.144Z,88.98
2023-02-15T22:17:46.042Z,88.99
2023-02-15T22:20:20.827Z,88.93
2023-02-15T22:22:54.684Z,88.84
2023-02-15T22:25:29.051Z,88.84
2023-02-15T22:28:01.669Z,88.78
2023-02-15T22:30:37.856Z,88.78
2023-02-15T22:33:11.220Z,88.83
2023-02-15T22:35:50.354Z,88.83
2023-02-15T22:38:14.963Z,88.84
2023-02-15T22:40:47.678Z,88.84
2023-02-15T22:43:33.314Z,88.94
2023-02-15T22:46:06.522Z,89.08
2023-02-15T22:48:38.302Z,89.06
2023-02-15T22:51:10.506Z,88.97
2023-02-15T22:53:41.039Z,88.98
2023-02-15T22:56:15.165Z,89.10
2023-02-15T22:58:48.418Z,89.05
2023-02-15T23:01:25.042Z,88.99
2023-02-15T23:04:01.208Z,88.99
2023-02-15T23:06:39.175Z,88.95
2023-02-15T23:09:12.335Z,88.85
2023-02-15T23:11:45.415Z,88.82
2023-02-15T23:14:31.013Z,88.65
2023-02-15T23:17:03.903Z,88.64
2023-02-15T23:19:36.479Z,88.65
2023-02-15T23:22:08.615Z,88.61
2023-02-15T23:24:41.708Z,88.40
2023-02-15T23:27:32.804Z,88.24
2023-02-15T23:30:08.392Z,88.26
2023-02-15T23:32:39.189Z,88.16
2023-02-15T23:35:17.946Z,88.30
2023-02-15T23:37:49.081Z,88.43
2023-02-15T23:40:43.723Z,88.35
2023-02-15T23:43:18.390Z,88.40
2023-02-15T23:45:50.974Z,88.33
2023-02-15T23:48:30.113Z,88.41
2023-02-15T23:51:03.348Z,88.38
2023-02-15T23:53:36.745Z,88.31
2023-02-15T23:56:08.195Z,88.30
2023-02-15T23:58:41.729Z,88.20
